Terminal Aerodrome Forecast
Issued by NWS Wilmington, OH

Current Version | Previous Version | Text Only | Print | Product List | Glossary Off
Versions: 1 2 3 4 5 6 7 8 9 10 11 12 13 14 15 16 17 18 19 20

000
FTUS41 KILN 242300
TAFILN
TAF
KILN 242338Z 2500/2524 25009KT P6SM SCT035
     FM250100 26006KT P6SM OVC019
      TEMPO 2501/2503 SCT019
     FM250300 23007KT P6SM OVC025
     FM250800 21004KT P6SM SCT025 SCT150
     FM251300 18003KT P6SM OVC120
     FM251500 15004KT P6SM SCT040 OVC100
      TEMPO 2517/2519 5SM -RA SCT010 OVC025
     FM251900 12005KT 5SM -RA BR BKN012 OVC025
      TEMPO 2522/2524 3SM -RA OVC008=

USA.gov is the U.S. government's official web portal to all federal, state and local government web resources and services.